• Join FlightAware (Why Join?)
  • Login
  • US Flag 
06:21PM EDT


 

Airport Tracker/Info


-or-


 

Live Flight TrackerFlight Track Log ✈ N508QS ✈ 25-May-2013 ✈ KILM - KCLT

Flight Track Log - Related Links

Times and Time Zones

All times are in EDT time to prevent confusion due to time zone crossing. See the N508QS flight status page for this flight to view local times or setup timezone preferences in your user account.

Time Position Orientation Groundspeed Altitude Reporting Facility
EDT Latitude Longitude Course Direction KTS MPH feet Rate Location/Type
06:21PM 34.2247 -78.0056 268° West 206 237 4,800  Level Washington Center
06:22PM 34.2275 -78.1586 271° West 243 280 9,700 2,520 Climbing Jacksonville Center
06:23PM 34.2267 -78.2542 269° West 264 304 12,000 2,400 Climbing Jacksonville Center
06:24PM 34.2286 -78.3619 271° West 300 345 14,500 1,920 Climbing Jacksonville Center
06:25PM 34.2481 -78.8511 268° West  Level FlightAware Approximate
06:25PM 34.2306 -78.4750 271° West 322 371 15,900  Level Jacksonville Center
06:26PM 34.2452 -78.9569 268° West  Level FlightAware Approximate
06:26PM 34.2303 -78.5853 270° West 335 386 15,900  Level Jacksonville Center
06:27PM 34.2300 -78.7008 270° West 335 386 15,900  Level Jacksonville Center
06:28PM 34.2294 -78.8114 270° West 340 391 15,900  Level Jacksonville Center
06:29PM 34.2308 -78.9244 271° West 345 397 15,900  Level Jacksonville Center
06:30PM 34.2322 -79.0372 271° West 345 397 15,900  Level Jacksonville Center
06:31PM 34.2336 -79.1528 271° West 345 397 15,900  Level Jacksonville Center
06:32PM 34.2700 -79.2542 293° West 345 397 15,900  Level Jacksonville Center
06:33PM 34.3106 -79.3556 296° West 338 389 15,900  Level Jacksonville Center
06:34PM 34.3531 -79.4569 297° West 338 389 16,000  Climbing Jacksonville Center
06:35PM 34.3911 -79.5586 294° West 333 383 16,000  Level Jacksonville Center
06:36PM 34.4333 -79.6578 297° West 333 383 16,000 -60 Level Jacksonville Center
06:37PM 34.4733 -79.7569 296° West 338 389 15,900 -60 Descending Jacksonville Center
06:38PM 34.5133 -79.8564 296° West 338 389 15,900  Level Jacksonville Center
06:39PM 34.5511 -79.9558 295° West 333 383 16,000 -900 Climbing Jacksonville Center
06:42PM 34.6464 -80.2036 295° West 302 348 12,900 -1,320 Descending Atlanta Center
06:43PM 34.6800 -80.2828 297° West 253 291 11,700 -960 Descending Atlanta Center
06:44PM 34.7158 -80.3569 300° West 254 292 11,000 -360 Descending Atlanta Center
06:45PM 34.7636 -80.4206 312° West 259 298 11,000  Level Atlanta Center
06:46PM 34.8178 -80.4892 314° West 254 292 11,000  Level Atlanta Center
06:47PM 34.8653 -80.5453 316° Northwest 251 289 11,000  Level Atlanta Center
06:48PM 34.9172 -80.6089 315° West 253 291 11,000  Level Atlanta Center
06:49PM 34.9628 -80.6706 312° West 250 288 11,000  Level Atlanta Center
06:50PM 35.0103 -80.7319 313° West 249 287 11,000 -720 Level Atlanta Center
06:51PM 35.0619 -80.7933 316° Northwest 244 281 9,600 -1,020 Descending Atlanta Center
06:52PM 35.1250 -80.8164 343° North 252 290 9,000 -540 Descending Atlanta Center
06:53PM 35.1900 -80.8189 358° North 219 252 8,600 -840 Descending Atlanta Center
06:54PM 35.2344 -80.7661 44° Northeast 219 252 7,400 -1,200 Descending Atlanta Center
06:55PM 35.2767 -80.7086 48° Northeast 210 242 6,200 -1,260 Descending Atlanta Center
06:56PM 35.3200 -80.6889 20° North 193 222 4,900 -1,140 Descending Atlanta Center
06:57PM 35.3503 -80.7336 310° West 166 191 4,000 -600 Descending Atlanta Center
06:58PM 35.3289 -80.7853 243° Southwest 170 196 3,800 -600 Descending Atlanta Center
06:59PM 35.2986 -80.8297 230° Southwest 170 196 2,900 -900 Descending Atlanta Center
07:00PM 35.2644 -80.8744 227° Southwest 165 190 2,000 -780 Descending Atlanta Center
07:01PM 35.2442 -80.9031 229° Southwest 108 124 1,400 -600 Descending Atlanta Center
07:03PM 35.2000 -80.9333 180° South  Level FlightAware Approximate
07:10PM 35.2137 -80.9491 180° South  Level Estimated
07:11PM 35.2137 -80.9491 180° South  Level Estimated